createdAt,value
2023-05-02T00:00:06.735Z,26.29
2023-05-02T00:02:36.497Z,26.05
2023-05-02T00:05:09.255Z,26.72
2023-05-02T00:07:39.200Z,26.40
2023-05-02T00:10:09.292Z,26.30
2023-05-02T00:12:39.039Z,27.06
2023-05-02T00:15:09.301Z,26.63
2023-05-02T00:17:39.338Z,26.94
2023-05-02T00:20:12.605Z,25.98
2023-05-02T00:22:44.254Z,27.91
2023-05-02T00:25:16.416Z,26.02
2023-05-02T00:27:51.312Z,25.69
2023-05-02T00:30:21.707Z,26.75
2023-05-02T00:32:51.526Z,25.91
2023-05-02T00:35:23.841Z,27.63
2023-05-02T00:37:53.540Z,26.69
2023-05-02T00:40:23.366Z,25.98
2023-05-02T00:42:53.015Z,26.20
2023-05-02T00:45:22.802Z,26.41
2023-05-02T00:47:53.039Z,26.38
2023-05-02T00:50:25.298Z,26.15
2023-05-02T00:52:58.216Z,26.17
2023-05-02T00:55:28.198Z,26.76
2023-05-02T00:57:58.693Z,25.86
2023-05-02T01:00:34.297Z,27.01
2023-05-02T01:03:15.967Z,26.36
2023-05-02T01:05:52.425Z,26.59
2023-05-02T01:08:29.109Z,27.35
2023-05-02T01:11:07.199Z,27.29
2023-05-02T01:13:38.596Z,24.38
2023-05-02T01:16:10.818Z,20.26
2023-05-02T01:18:44.038Z,18.37
2023-05-02T01:21:16.684Z,16.70
2023-05-02T01:24:00.268Z,16.56
2023-05-02T01:26:38.128Z,16.53
2023-05-02T01:29:11.725Z,16.68
2023-05-02T01:31:44.130Z,16.42
2023-05-02T01:34:14.221Z,16.48
2023-05-02T01:36:46.880Z,17.46
2023-05-02T01:39:23.306Z,17.69
2023-05-02T01:41:54.577Z,18.68
2023-05-02T01:44:27.967Z,20.39
2023-05-02T01:46:59.126Z,22.86
2023-05-02T01:49:30.150Z,23.91
2023-05-02T01:52:06.123Z,24.66
2023-05-02T01:54:39.114Z,24.89
2023-05-02T01:57:10.403Z,24.38
2023-05-02T01:59:43.775Z,24.08
2023-05-02T02:02:16.037Z,24.10
2023-05-02T02:04:50.216Z,24.35
2023-05-02T02:07:20.156Z,24.78
2023-05-02T02:09:49.881Z,24.73
2023-05-02T02:12:26.547Z,24.24
2023-05-02T02:15:03.792Z,24.88
2023-05-02T02:17:39.807Z,25.20
2023-05-02T02:20:12.640Z,24.93
2023-05-02T02:22:44.118Z,24.46
2023-05-02T02:25:15.800Z,24.80
2023-05-02T02:27:45.896Z,24.93
2023-05-02T02:30:18.688Z,24.92
2023-05-02T02:32:48.416Z,23.97
2023-05-02T02:35:18.750Z,23.76
2023-05-02T02:37:54.160Z,23.59
2023-05-02T02:40:27.374Z,23.40
2023-05-02T02:43:04.583Z,23.14
2023-05-02T02:45:42.060Z,22.48
2023-05-02T02:48:22.653Z,22.66
2023-05-02T02:51:02.587Z,22.12
2023-05-02T02:53:36.945Z,22.04
2023-05-02T02:56:09.489Z,21.09
2023-05-02T02:58:48.230Z,20.30
2023-05-02T03:01:22.864Z,20.62
2023-05-02T03:03:54.868Z,20.13
2023-05-02T03:06:25.144Z,19.72
2023-05-02T03:08:55.682Z,20.11
2023-05-02T03:11:31.585Z,19.88
2023-05-02T03:14:01.734Z,19.47
2023-05-02T03:16:39.489Z,19.94
2023-05-02T03:19:13.307Z,19.86
2023-05-02T03:21:43.693Z,19.69
2023-05-02T03:24:19.575Z,19.69
2023-05-02T03:26:50.553Z,19.54
2023-05-02T03:29:26.303Z,19.47
2023-05-02T03:31:58.813Z,19.83
2023-05-02T03:34:28.820Z,19.17
2023-05-02T03:36:59.036Z,18.93
2023-05-02T03:39:29.300Z,18.57
2023-05-02T03:41:59.001Z,15.60
2023-05-02T03:44:29.167Z,11.13
2023-05-02T03:47:01.465Z,8.41
2023-05-02T03:49:35.077Z,7.08
2023-05-02T03:52:06.022Z,6.88
2023-05-02T03:54:38.052Z,6.60
2023-05-02T03:57:09.010Z,6.14
2023-05-02T03:59:41.794Z,6.23
2023-05-02T04:02:23.112Z,5.90
2023-05-02T04:04:52.908Z,6.07
2023-05-02T04:07:26.058Z,5.61
2023-05-02T04:10:05.891Z,5.34
2023-05-02T04:12:40.385Z,5.33
2023-05-02T04:15:11.389Z,5.21
2023-05-02T04:17:44.999Z,4.61
2023-05-02T04:20:15.958Z,4.29
2023-05-02T04:22:50.698Z,3.65
2023-05-02T04:25:21.162Z,3.44
2023-05-02T04:27:52.592Z,3.26
2023-05-02T04:30:25.538Z,3.10
2023-05-02T04:33:09.987Z,3.13
2023-05-02T04:35:42.581Z,3.11
2023-05-02T04:38:15.457Z,3.29
2023-05-02T04:40:47.008Z,3.19
2023-05-02T04:43:16.732Z,3.24
2023-05-02T04:45:52.179Z,3.32
2023-05-02T04:48:37.458Z,3.08
2023-05-02T04:51:07.683Z,3.13
2023-05-02T04:53:37.374Z,3.08
2023-05-02T04:56:07.619Z,3.18
2023-05-02T04:58:39.833Z,2.90
2023-05-02T05:01:14.675Z,3.16
2023-05-02T05:03:47.408Z,2.94
2023-05-02T05:06:19.537Z,2.93
2023-05-02T05:08:49.684Z,3.03
2023-05-02T05:11:19.729Z,3.29
2023-05-02T05:13:50.443Z,2.95
2023-05-02T05:16:20.551Z,3.19
2023-05-02T05:18:54.160Z,2.88
2023-05-02T05:21:24.055Z,3.16
2023-05-02T05:23:54.661Z,2.93
2023-05-02T05:26:28.639Z,2.84
2023-05-02T05:28:58.826Z,2.88
2023-05-02T05:31:32.751Z,2.80
2023-05-02T05:34:07.404Z,2.92
2023-05-02T05:36:38.706Z,3.05
2023-05-02T05:39:08.549Z,2.86
2023-05-02T05:41:39.911Z,3.05
2023-05-02T05:44:12.917Z,3.00
2023-05-02T05:46:42.628Z,3.02
2023-05-02T05:49:18.502Z,3.05
2023-05-02T05:51:50.101Z,3.23
2023-05-02T05:54:21.350Z,3.09
2023-05-02T05:56:51.167Z,3.35
2023-05-02T05:59:22.806Z,3.14
2023-05-02T06:01:52.637Z,2.87
2023-05-02T06:04:27.463Z,3.04
2023-05-02T06:06:57.860Z,2.86
2023-05-02T06:09:27.654Z,2.82
2023-05-02T06:11:57.424Z,2.61
2023-05-02T06:14:27.278Z,2.50
2023-05-02T06:16:57.244Z,2.53
2023-05-02T06:19:29.502Z,2.49
2023-05-02T06:21:59.157Z,2.30
2023-05-02T06:24:28.900Z,2.42
2023-05-02T06:26:58.632Z,2.29
2023-05-02T06:29:28.379Z,2.49
2023-05-02T06:31:58.688Z,2.58
2023-05-02T06:34:31.132Z,2.68
2023-05-02T06:37:00.793Z,2.74
2023-05-02T06:39:30.512Z,2.68
2023-05-02T06:42:00.852Z,2.54
2023-05-02T06:44:32.352Z,2.53
2023-05-02T06:47:02.117Z,2.44
2023-05-02T06:49:34.432Z,2.43
2023-05-02T06:52:04.127Z,2.64
2023-05-02T06:54:33.818Z,2.76
2023-05-02T06:57:03.916Z,3.53
2023-05-02T06:59:33.773Z,2.66
2023-05-02T07:02:05.391Z,3.11
2023-05-02T07:04:38.357Z,2.78
2023-05-02T07:07:08.964Z,3.09
2023-05-02T07:09:38.662Z,3.13
2023-05-02T07:12:08.784Z,3.62
2023-05-02T07:14:38.565Z,3.48
2023-05-02T07:17:08.382Z,3.37
2023-05-02T07:19:42.280Z,3.49
2023-05-02T07:22:12.965Z,3.48
2023-05-02T07:24:43.692Z,3.74
2023-05-02T07:27:14.038Z,3.89
2023-05-02T07:29:44.848Z,3.74
2023-05-02T07:32:14.663Z,3.73
2023-05-02T07:34:47.177Z,4.14
2023-05-02T07:37:17.004Z,3.92
2023-05-02T07:39:46.759Z,4.12
2023-05-02T07:42:17.748Z,3.88
2023-05-02T07:44:47.463Z,3.65
2023-05-02T07:47:17.142Z,3.96
2023-05-02T07:49:49.387Z,3.84
2023-05-02T07:52:19.032Z,3.92
2023-05-02T07:54:50.704Z,3.80
2023-05-02T07:57:20.714Z,4.08
2023-05-02T07:59:50.495Z,4.44
2023-05-02T08:02:21.013Z,4.30
2023-05-02T08:04:53.358Z,4.12
2023-05-02T08:07:23.138Z,4.38
2023-05-02T08:09:52.882Z,3.80
2023-05-02T08:12:22.753Z,4.04
2023-05-02T08:14:52.398Z,4.37
2023-05-02T08:17:22.221Z,3.63
2023-05-02T08:19:54.605Z,3.54
2023-05-02T08:22:24.253Z,3.74
2023-05-02T08:24:53.924Z,3.56
2023-05-02T08:27:23.573Z,3.54
2023-05-02T08:29:53.265Z,3.64
2023-05-02T08:32:22.934Z,3.50
2023-05-02T08:34:57.481Z,3.61
2023-05-02T08:37:27.164Z,3.76
2023-05-02T08:39:56.924Z,3.63
2023-05-02T08:42:26.719Z,4.18
2023-05-02T08:44:56.722Z,4.14
2023-05-02T08:47:28.571Z,4.40
2023-05-02T08:50:02.524Z,3.88
2023-05-02T08:52:33.645Z,4.21
2023-05-02T08:55:04.453Z,4.16
2023-05-02T08:57:34.225Z,3.58
2023-05-02T09:00:04.969Z,3.46
2023-05-02T09:02:52.592Z,3.63
2023-05-02T09:05:27.407Z,3.95
2023-05-02T09:07:57.102Z,3.46
2023-05-02T09:10:29.936Z,3.76
2023-05-02T09:12:59.679Z,3.30
2023-05-02T09:15:29.322Z,3.37
2023-05-02T09:17:59.047Z,3.38
2023-05-02T09:20:31.514Z,3.44
2023-05-02T09:23:01.289Z,3.28
2023-05-02T09:25:39.503Z,3.12
2023-05-02T09:28:09.142Z,3.43
2023-05-02T09:30:38.980Z,3.34
2023-05-02T09:33:08.738Z,3.33
2023-05-02T09:35:48.852Z,3.43
2023-05-02T09:38:23.489Z,3.45
2023-05-02T09:40:57.338Z,3.38
2023-05-02T09:43:27.285Z,3.12
2023-05-02T09:46:00.226Z,3.19
2023-05-02T09:48:30.825Z,3.47
2023-05-02T09:51:01.620Z,2.89
2023-05-02T09:53:33.856Z,3.00
2023-05-02T09:56:04.796Z,3.07
2023-05-02T09:58:34.490Z,3.11
2023-05-02T10:01:04.122Z,2.73
2023-05-02T10:03:34.466Z,3.12
2023-05-02T10:06:05.722Z,2.88
2023-05-02T10:08:39.511Z,2.99
2023-05-02T10:11:11.089Z,3.16
2023-05-02T10:13:42.892Z,3.76
2023-05-02T10:16:15.364Z,3.02
2023-05-02T10:18:50.087Z,2.93
2023-05-02T10:21:27.550Z,2.74
2023-05-02T10:24:01.310Z,3.32
2023-05-02T10:26:31.923Z,3.37
2023-05-02T10:29:02.580Z,2.96
2023-05-02T10:31:37.828Z,3.29
2023-05-02T10:34:10.760Z,3.37
2023-05-02T10:36:40.819Z,3.45
2023-05-02T10:39:13.207Z,3.66
2023-05-02T10:41:44.607Z,3.15
2023-05-02T10:44:14.371Z,3.86
2023-05-02T10:46:44.122Z,2.95
2023-05-02T10:49:15.369Z,3.03
2023-05-02T10:51:46.103Z,2.73
2023-05-02T10:54:25.851Z,2.58
2023-05-02T10:57:06.374Z,2.47
2023-05-02T10:59:37.834Z,2.25
2023-05-02T11:02:07.898Z,2.34
2023-05-02T11:04:52.615Z,2.72
2023-05-02T11:07:22.684Z,2.56
2023-05-02T11:09:54.950Z,2.71
2023-05-02T11:12:39.658Z,2.46
2023-05-02T11:15:09.953Z,2.70
2023-05-02T11:17:54.454Z,2.67
2023-05-02T11:20:24.296Z,2.55
2023-05-02T11:22:54.275Z,2.47
2023-05-02T11:25:34.793Z,2.69
2023-05-02T11:28:05.067Z,2.58
2023-05-02T11:30:42.358Z,2.54
2023-05-02T11:33:21.725Z,3.01
2023-05-02T11:35:51.771Z,2.94
2023-05-02T11:38:24.510Z,3.40
2023-05-02T11:41:04.626Z,3.16
2023-05-02T11:43:34.791Z,3.03
2023-05-02T11:46:06.135Z,3.00
2023-05-02T11:48:36.044Z,3.10
2023-05-02T11:51:07.400Z,3.31
2023-05-02T11:53:45.169Z,3.26
2023-05-02T11:56:17.515Z,3.54
2023-05-02T11:58:47.361Z,3.60
2023-05-02T12:01:18.016Z,3.55
2023-05-02T12:03:49.574Z,3.30
2023-05-02T12:06:21.375Z,3.25
2023-05-02T12:08:55.719Z,3.63
2023-05-02T12:11:28.035Z,3.81
2023-05-02T12:13:57.898Z,3.41
2023-05-02T12:16:28.023Z,3.40
2023-05-02T12:18:59.724Z,3.69
2023-05-02T12:21:33.227Z,3.42
2023-05-02T12:24:03.667Z,3.61
2023-05-02T12:26:36.042Z,4.08
2023-05-02T12:29:08.085Z,3.72
2023-05-02T12:31:37.832Z,3.71
2023-05-02T12:34:07.532Z,4.18
2023-05-02T12:36:37.517Z,3.85
2023-05-02T12:39:07.392Z,3.67
2023-05-02T12:41:43.844Z,3.60
2023-05-02T12:44:13.630Z,3.81
2023-05-02T12:46:58.419Z,3.76
2023-05-02T12:49:28.195Z,3.97
2023-05-02T12:51:58.377Z,4.21
2023-05-02T12:54:28.405Z,4.10
2023-05-02T12:57:00.703Z,4.00
2023-05-02T12:59:31.436Z,4.09
2023-05-02T13:02:01.550Z,3.91
2023-05-02T13:04:37.798Z,3.42
2023-05-02T13:07:07.693Z,3.61
2023-05-02T13:09:37.605Z,3.81
2023-05-02T13:12:10.253Z,3.77
2023-05-02T13:14:40.242Z,3.99
2023-05-02T13:17:10.652Z,4.10
2023-05-02T13:19:44.409Z,4.00
2023-05-02T13:22:17.243Z,4.02
2023-05-02T13:24:46.985Z,4.09
2023-05-02T13:27:19.386Z,4.11
2023-05-02T13:29:49.167Z,4.11
2023-05-02T13:32:18.885Z,4.85
2023-05-02T13:34:48.655Z,4.66
2023-05-02T13:37:18.367Z,4.69
2023-05-02T13:39:48.452Z,4.42
2023-05-02T13:42:20.669Z,4.57
2023-05-02T13:44:50.353Z,4.35
2023-05-02T13:47:19.981Z,4.62
2023-05-02T13:49:49.600Z,4.65
2023-05-02T13:52:19.433Z,4.72
2023-05-02T13:54:49.310Z,4.73
2023-05-02T13:57:21.550Z,4.63
2023-05-02T13:59:51.409Z,4.30
2023-05-02T14:02:21.186Z,4.23
2023-05-02T14:04:50.961Z,4.51
2023-05-02T14:07:20.703Z,4.68
2023-05-02T14:09:50.373Z,4.84
2023-05-02T14:12:22.589Z,4.73
2023-05-02T14:14:52.712Z,4.51
2023-05-02T14:17:25.254Z,4.83
2023-05-02T14:19:55.041Z,4.84
2023-05-02T14:22:24.784Z,4.74
2023-05-02T14:24:54.484Z,4.54
2023-05-02T14:27:27.029Z,4.39
2023-05-02T14:29:56.789Z,4.32
2023-05-02T14:32:26.552Z,4.44
2023-05-02T14:34:56.340Z,4.48
2023-05-02T14:37:26.067Z,4.82
2023-05-02T14:39:56.499Z,4.81
2023-05-02T14:42:28.882Z,4.79
2023-05-02T14:44:59.806Z,4.65
2023-05-02T14:47:31.433Z,4.77
2023-05-02T14:50:01.545Z,4.62
2023-05-02T14:52:31.613Z,4.96
2023-05-02T14:55:02.191Z,4.62
2023-05-02T14:57:34.470Z,4.49
2023-05-02T15:00:05.053Z,4.54
2023-05-02T15:02:35.313Z,4.74
2023-05-02T15:05:05.784Z,4.61
2023-05-02T15:07:35.504Z,4.81
2023-05-02T15:10:05.219Z,4.63
2023-05-02T15:12:37.534Z,4.53
2023-05-02T15:15:09.227Z,4.97
2023-05-02T15:17:39.436Z,4.43
2023-05-02T15:20:09.918Z,4.50
2023-05-02T15:22:39.637Z,5.50
2023-05-02T15:25:10.153Z,5.42
2023-05-02T15:27:42.782Z,5.62
2023-05-02T15:30:12.871Z,5.47
2023-05-02T15:32:42.602Z,4.56
2023-05-02T15:35:12.648Z,4.51
2023-05-02T15:37:42.414Z,4.82
2023-05-02T15:40:12.462Z,4.54
2023-05-02T15:42:44.726Z,4.97
2023-05-02T15:45:15.935Z,4.83
2023-05-02T15:47:45.607Z,4.73
2023-05-02T15:50:15.984Z,5.07
2023-05-02T15:52:45.745Z,5.38
2023-05-02T15:55:15.696Z,5.48
2023-05-02T15:57:47.943Z,5.28
2023-05-02T16:00:18.299Z,4.95
2023-05-02T16:02:48.044Z,5.87
2023-05-02T16:05:18.188Z,5.72
2023-05-02T16:07:47.876Z,5.76
2023-05-02T16:10:17.558Z,5.80
2023-05-02T16:12:49.779Z,5.87
2023-05-02T16:15:19.546Z,5.41
2023-05-02T16:17:49.399Z,5.75
2023-05-02T16:20:19.369Z,5.48
2023-05-02T16:22:49.828Z,5.76
2023-05-02T16:25:19.944Z,5.60
2023-05-02T16:27:52.214Z,5.52
2023-05-02T16:30:22.081Z,5.70
2023-05-02T16:32:51.798Z,5.57
2023-05-02T16:35:21.635Z,5.49
2023-05-02T16:37:51.283Z,5.60
2023-05-02T16:40:20.988Z,5.66
2023-05-02T16:42:53.221Z,5.68
2023-05-02T16:45:22.964Z,5.29
2023-05-02T16:47:52.760Z,5.44
2023-05-02T16:50:22.550Z,5.48
2023-05-02T16:52:52.300Z,5.32
2023-05-02T16:55:21.972Z,5.35
2023-05-02T17:01:22.579Z,5.54
2023-05-02T17:03:52.378Z,5.08
2023-05-02T17:06:23.125Z,5.05
2023-05-02T17:08:52.865Z,4.90
2023-05-02T17:11:22.787Z,4.70
2023-05-02T17:13:52.755Z,4.92
2023-05-02T17:16:25.167Z,4.96
2023-05-02T17:18:54.831Z,5.01
2023-05-02T17:21:24.590Z,4.71
2023-05-02T17:23:55.683Z,4.70
2023-05-02T17:26:25.322Z,4.67
2023-05-02T17:28:55.124Z,4.47
2023-05-02T17:31:27.495Z,4.54
2023-05-02T17:33:57.176Z,4.56
2023-05-02T17:36:26.914Z,4.33
2023-05-02T17:38:56.618Z,4.30
2023-05-02T17:41:26.328Z,4.14
2023-05-02T17:43:56.146Z,4.20
2023-05-02T17:46:28.683Z,4.22
2023-05-02T17:48:58.328Z,4.20
2023-05-02T17:51:28.186Z,4.05
2023-05-02T17:53:57.951Z,3.96
2023-05-02T17:56:27.737Z,3.99
2023-05-02T17:58:57.346Z,3.94
2023-05-02T18:01:29.544Z,3.64
2023-05-02T18:03:59.512Z,3.85
2023-05-02T18:06:30.288Z,3.76
2023-05-02T18:09:00.211Z,3.84
2023-05-02T18:11:40.158Z,4.03
2023-05-02T18:14:09.868Z,3.54
2023-05-02T18:16:47.105Z,3.72
2023-05-02T18:19:16.786Z,3.63
2023-05-02T18:21:47.042Z,3.49
2023-05-02T18:24:16.872Z,3.96
2023-05-02T18:26:46.623Z,3.48
2023-05-02T18:29:16.534Z,3.31
2023-05-02T18:31:52.651Z,3.58
2023-05-02T18:34:23.022Z,3.60
2023-05-02T18:36:52.981Z,3.66
2023-05-02T18:39:22.633Z,3.32
2023-05-02T18:41:52.293Z,3.47
2023-05-02T18:44:21.926Z,3.45
2023-05-02T18:46:54.144Z,3.62
2023-05-02T18:49:23.756Z,3.62
2023-05-02T18:51:53.507Z,3.55
2023-05-02T18:54:23.598Z,3.32
2023-05-02T18:56:53.295Z,3.65
2023-05-02T18:59:22.906Z,3.23
2023-05-02T19:01:55.189Z,3.57
2023-05-02T19:04:24.980Z,3.21
2023-05-02T19:06:54.668Z,3.24
2023-05-02T19:09:24.396Z,3.26
2023-05-02T19:11:55.152Z,3.33
2023-05-02T19:14:24.836Z,3.30
2023-05-02T19:16:57.133Z,3.24
2023-05-02T19:19:26.773Z,3.31
2023-05-02T19:21:56.807Z,3.39
2023-05-02T19:24:26.570Z,3.16
2023-05-02T19:26:56.282Z,3.28
2023-05-02T19:29:26.247Z,3.13
2023-05-02T19:31:58.646Z,2.93
2023-05-02T19:34:28.537Z,3.01
2023-05-02T19:36:58.243Z,3.11
2023-05-02T19:39:28.572Z,2.88
2023-05-02T19:41:58.184Z,3.15
2023-05-02T19:44:27.799Z,3.09
2023-05-02T19:47:00.155Z,3.01
2023-05-02T19:49:29.791Z,2.90
2023-05-02T19:51:59.449Z,3.02
2023-05-02T19:54:29.075Z,2.97
2023-05-02T19:56:58.708Z,3.12
2023-05-02T19:59:29.130Z,3.32
2023-05-02T20:02:02.700Z,3.00
2023-05-02T20:04:32.687Z,3.06
2023-05-02T20:07:02.445Z,3.16
2023-05-02T20:09:32.579Z,3.17
2023-05-02T20:12:02.859Z,2.89
2023-05-02T20:14:32.642Z,2.96
2023-05-02T20:17:05.532Z,3.36
2023-05-02T20:19:35.291Z,3.21
2023-05-02T20:22:05.087Z,3.12
2023-05-02T20:24:34.732Z,2.97
2023-05-02T20:27:04.450Z,3.15
2023-05-02T20:29:34.217Z,3.04
2023-05-02T20:32:08.516Z,3.24
2023-05-02T20:34:40.499Z,3.30
2023-05-02T20:37:11.019Z,2.99
2023-05-02T20:39:40.824Z,3.29
2023-05-02T20:42:10.879Z,3.15
2023-05-02T20:44:47.750Z,2.92
2023-05-02T20:47:20.008Z,3.01
2023-05-02T20:49:49.700Z,3.27
2023-05-02T20:52:19.678Z,3.04
2023-05-02T20:54:50.350Z,3.17
2023-05-02T20:57:20.080Z,2.96
2023-05-02T20:59:49.796Z,3.08
2023-05-02T21:02:22.387Z,2.97
2023-05-02T21:04:52.192Z,2.95
2023-05-02T21:07:21.856Z,2.98
2023-05-02T21:09:51.557Z,2.99
2023-05-02T21:12:21.216Z,3.07
2023-05-02T21:14:50.918Z,3.03
2023-05-02T21:17:23.188Z,3.21
2023-05-02T21:19:56.058Z,2.92
2023-05-02T21:22:25.878Z,2.84
2023-05-02T21:24:56.060Z,2.81
2023-05-02T21:27:26.049Z,2.81
2023-05-02T21:29:55.766Z,2.95
2023-05-02T21:32:27.985Z,3.05
2023-05-02T21:34:57.728Z,2.99
2023-05-02T21:37:27.469Z,3.10
2023-05-02T21:39:57.273Z,2.80
2023-05-02T21:42:26.944Z,3.06
2023-05-02T21:44:56.589Z,3.04
2023-05-02T21:47:28.803Z,2.88
2023-05-02T21:49:59.075Z,3.23
2023-05-02T21:52:28.758Z,2.89
2023-05-02T21:54:58.418Z,3.10
2023-05-02T21:57:29.633Z,3.25
2023-05-02T21:59:59.332Z,3.29
2023-05-02T22:02:31.674Z,3.30
2023-05-02T22:05:01.542Z,3.21
2023-05-02T22:07:31.285Z,3.13
2023-05-02T22:10:01.256Z,3.48
2023-05-02T22:12:31.160Z,3.47
2023-05-02T22:15:00.824Z,3.18
2023-05-02T22:17:33.086Z,3.04
2023-05-02T22:20:03.316Z,3.10
2023-05-02T22:22:33.150Z,3.26
2023-05-02T22:25:03.130Z,3.30
2023-05-02T22:27:32.815Z,3.35
2023-05-02T22:30:02.731Z,3.33
2023-05-02T22:32:35.395Z,3.33
2023-05-02T22:35:05.279Z,3.16
2023-05-02T22:37:34.888Z,3.61
2023-05-02T22:40:04.884Z,3.22
2023-05-02T22:42:34.848Z,3.28
2023-05-02T22:45:04.684Z,3.27
2023-05-02T22:47:37.212Z,3.31
2023-05-02T22:50:10.252Z,3.37
2023-05-02T22:52:40.040Z,3.47
2023-05-02T22:55:10.729Z,3.37
2023-05-02T22:57:40.554Z,3.63
2023-05-02T23:00:12.532Z,3.57
2023-05-02T23:02:44.952Z,3.47
2023-05-02T23:05:14.702Z,3.53
2023-05-02T23:07:44.374Z,3.47
2023-05-02T23:10:14.121Z,3.73
2023-05-02T23:12:44.543Z,3.85
2023-05-02T23:15:14.488Z,3.68
2023-05-02T23:17:46.805Z,3.88
2023-05-02T23:20:19.663Z,3.83
2023-05-02T23:22:49.470Z,3.78
2023-05-02T23:25:19.125Z,3.62
2023-05-02T23:27:48.971Z,3.82
2023-05-02T23:30:18.746Z,3.82
2023-05-02T23:32:51.834Z,3.72
2023-05-02T23:35:21.739Z,3.74
2023-05-02T23:37:52.811Z,3.85
2023-05-02T23:40:22.540Z,4.25
2023-05-02T23:42:52.268Z,3.94
2023-05-02T23:45:22.610Z,3.95
2023-05-02T23:47:54.905Z,3.61
2023-05-02T23:50:24.598Z,3.75
2023-05-02T23:52:54.250Z,3.84
2023-05-02T23:55:23.917Z,3.70
2023-05-02T23:57:53.614Z,3.92
